sensor_id;sensor_type;location;lat;lon;timestamp;pressure;altitude;pressure_sealevel;temperature;humidity
35848;BME280;22332;51.954;20.118;2023-05-23T00:02:46;100146.34;;;10.87;57.62
35848;BME280;22332;51.954;20.118;2023-05-23T00:05:53;100146.86;;;10.84;57.41
35848;BME280;22332;51.954;20.118;2023-05-23T00:08:59;100153.54;;;10.78;57.41
35848;BME280;22332;51.954;20.118;2023-05-23T00:12:05;100153.77;;;10.74;57.44
35848;BME280;22332;51.954;20.118;2023-05-23T00:15:11;100150.92;;;10.67;57.47
35848;BME280;22332;51.954;20.118;2023-05-23T00:18:17;100150.60;;;10.65;57.40
35848;BME280;22332;51.954;20.118;2023-05-23T00:21:22;100152.04;;;10.63;57.99
35848;BME280;22332;51.954;20.118;2023-05-23T00:24:28;100150.05;;;10.61;57.76
35848;BME280;22332;51.954;20.118;2023-05-23T00:27:34;100149.46;;;10.58;57.94
35848;BME280;22332;51.954;20.118;2023-05-23T00:30:39;100145.16;;;10.55;58.00
35848;BME280;22332;51.954;20.118;2023-05-23T00:33:45;100143.92;;;10.53;58.06
35848;BME280;22332;51.954;20.118;2023-05-23T00:36:50;100144.54;;;10.50;58.27
35848;BME280;22332;51.954;20.118;2023-05-23T00:39:57;100143.40;;;10.46;58.18
35848;BME280;22332;51.954;20.118;2023-05-23T00:43:02;100141.78;;;10.41;58.18
35848;BME280;22332;51.954;20.118;2023-05-23T00:46:08;100137.30;;;10.38;58.54
35848;BME280;22332;51.954;20.118;2023-05-23T00:49:15;100139.91;;;10.35;58.61
35848;BME280;22332;51.954;20.118;2023-05-23T00:52:23;100135.17;;;10.30;58.28
35848;BME280;22332;51.954;20.118;2023-05-23T00:55:29;100133.23;;;10.25;58.51
35848;BME280;22332;51.954;20.118;2023-05-23T00:58:35;100130.66;;;10.20;58.69
35848;BME280;22332;51.954;20.118;2023-05-23T01:01:41;100129.84;;;10.20;58.92
35848;BME280;22332;51.954;20.118;2023-05-23T01:04:50;100130.56;;;10.17;58.70
35848;BME280;22332;51.954;20.118;2023-05-23T01:07:57;100130.88;;;10.16;58.81
35848;BME280;22332;51.954;20.118;2023-05-23T01:11:08;100129.51;;;10.14;58.97
35848;BME280;22332;51.954;20.118;2023-05-23T01:14:20;100126.86;;;10.08;59.19
35848;BME280;22332;51.954;20.118;2023-05-23T01:17:30;100123.75;;;10.04;59.04
35848;BME280;22332;51.954;20.118;2023-05-23T01:20:42;100123.94;;;10.02;59.00
35848;BME280;22332;51.954;20.118;2023-05-23T01:24:20;100118.24;;;9.99;59.47
35848;BME280;22332;51.954;20.118;2023-05-23T01:27:37;100118.87;;;9.98;59.39
35848;BME280;22332;51.954;20.118;2023-05-23T01:30:46;100119.36;;;9.94;59.59
35848;BME280;22332;51.954;20.118;2023-05-23T01:33:54;100118.11;;;9.93;59.54
35848;BME280;22332;51.954;20.118;2023-05-23T01:37:00;100120.05;;;9.89;59.63
35848;BME280;22332;51.954;20.118;2023-05-23T01:40:07;100113.66;;;9.86;59.58
35848;BME280;22332;51.954;20.118;2023-05-23T01:43:15;100112.33;;;9.87;59.80
35848;BME280;22332;51.954;20.118;2023-05-23T01:46:21;100114.47;;;9.90;59.55
35848;BME280;22332;51.954;20.118;2023-05-23T01:49:28;100114.39;;;9.91;59.57
35848;BME280;22332;51.954;20.118;2023-05-23T01:52:35;100112.20;;;9.90;59.78
35848;BME280;22332;51.954;20.118;2023-05-23T01:55:41;100108.90;;;9.89;59.69
35848;BME280;22332;51.954;20.118;2023-05-23T01:58:48;100104.78;;;9.88;59.65
35848;BME280;22332;51.954;20.118;2023-05-23T02:01:54;100106.75;;;9.86;59.57
35848;BME280;22332;51.954;20.118;2023-05-23T02:04:59;100105.70;;;9.79;59.75
35848;BME280;22332;51.954;20.118;2023-05-23T02:08:05;100102.07;;;9.75;59.71
35848;BME280;22332;51.954;20.118;2023-05-23T02:11:11;100100.77;;;9.72;59.81
35848;BME280;22332;51.954;20.118;2023-05-23T02:14:17;100102.34;;;9.69;59.88
35848;BME280;22332;51.954;20.118;2023-05-23T02:17:22;100100.89;;;9.67;59.77
35848;BME280;22332;51.954;20.118;2023-05-23T02:20:28;100096.79;;;9.64;59.98
35848;BME280;22332;51.954;20.118;2023-05-23T02:23:34;100096.33;;;9.61;59.87
35848;BME280;22332;51.954;20.118;2023-05-23T02:26:39;100092.50;;;9.59;59.93
35848;BME280;22332;51.954;20.118;2023-05-23T02:29:44;100091.60;;;9.55;60.16
35848;BME280;22332;51.954;20.118;2023-05-23T02:32:50;100094.27;;;9.52;60.23
35848;BME280;22332;51.954;20.118;2023-05-23T02:35:56;100088.23;;;9.48;60.26
35848;BME280;22332;51.954;20.118;2023-05-23T02:39:01;100091.02;;;9.44;60.30
35848;BME280;22332;51.954;20.118;2023-05-23T02:42:08;100087.85;;;9.44;60.27
35848;BME280;22332;51.954;20.118;2023-05-23T02:45:14;100085.83;;;9.43;60.34
35848;BME280;22332;51.954;20.118;2023-05-23T02:48:20;100083.86;;;9.43;60.33
35848;BME280;22332;51.954;20.118;2023-05-23T02:51:26;100078.89;;;9.42;60.59
35848;BME280;22332;51.954;20.118;2023-05-23T02:54:31;100074.11;;;9.41;60.54
35848;BME280;22332;51.954;20.118;2023-05-23T02:57:37;100078.68;;;9.42;60.55
35848;BME280;22332;51.954;20.118;2023-05-23T03:00:42;100076.06;;;9.43;60.66
35848;BME280;22332;51.954;20.118;2023-05-23T03:03:48;100074.79;;;9.46;60.94
35848;BME280;22332;51.954;20.118;2023-05-23T03:06:53;100075.41;;;9.48;60.97
35848;BME280;22332;51.954;20.118;2023-05-23T03:10:00;100076.25;;;9.51;60.83
35848;BME280;22332;51.954;20.118;2023-05-23T03:13:05;100074.18;;;9.54;60.80
35848;BME280;22332;51.954;20.118;2023-05-23T03:16:13;100075.96;;;9.59;61.21
35848;BME280;22332;51.954;20.118;2023-05-23T03:19:19;100074.95;;;9.62;61.19
35848;BME280;22332;51.954;20.118;2023-05-23T03:22:24;100076.30;;;9.66;61.16
35848;BME280;22332;51.954;20.118;2023-05-23T03:25:30;100076.46;;;9.73;61.41
35848;BME280;22332;51.954;20.118;2023-05-23T03:28:35;100077.42;;;9.87;61.68
35848;BME280;22332;51.954;20.118;2023-05-23T03:31:41;100078.20;;;9.97;61.23
35848;BME280;22332;51.954;20.118;2023-05-23T03:34:46;100075.66;;;10.08;61.59
35848;BME280;22332;51.954;20.118;2023-05-23T03:37:52;100074.35;;;10.31;61.51
35848;BME280;22332;51.954;20.118;2023-05-23T03:40:57;100072.34;;;10.56;61.86
35848;BME280;22332;51.954;20.118;2023-05-23T03:44:03;100071.33;;;10.77;61.25
35848;BME280;22332;51.954;20.118;2023-05-23T03:47:08;100064.67;;;10.94;61.40
35848;BME280;22332;51.954;20.118;2023-05-23T03:50:15;100062.91;;;11.14;61.57
35848;BME280;22332;51.954;20.118;2023-05-23T03:53:21;100059.20;;;11.37;61.44
35848;BME280;22332;51.954;20.118;2023-05-23T03:56:26;100050.67;;;11.66;61.56
35848;BME280;22332;51.954;20.118;2023-05-23T03:59:32;100051.20;;;11.96;61.45
35848;BME280;22332;51.954;20.118;2023-05-23T04:02:39;100046.14;;;12.26;61.41
35848;BME280;22332;51.954;20.118;2023-05-23T04:05:45;100043.48;;;12.53;61.24
35848;BME280;22332;51.954;20.118;2023-05-23T04:08:51;100035.86;;;12.80;61.42
35848;BME280;22332;51.954;20.118;2023-05-23T04:11:58;100032.96;;;13.02;61.34
35848;BME280;22332;51.954;20.118;2023-05-23T04:15:07;100030.50;;;13.21;61.44
35848;BME280;22332;51.954;20.118;2023-05-23T04:18:19;100028.34;;;13.46;61.53
35848;BME280;22332;51.954;20.118;2023-05-23T04:21:25;100028.90;;;13.72;61.56
35848;BME280;22332;51.954;20.118;2023-05-23T04:24:42;100031.71;;;14.00;61.40
35848;BME280;22332;51.954;20.118;2023-05-23T04:27:48;100035.57;;;14.20;61.36
35848;BME280;22332;51.954;20.118;2023-05-23T04:30:54;100039.36;;;14.43;61.48
35848;BME280;22332;51.954;20.118;2023-05-23T04:34:04;100041.39;;;14.67;61.54
35848;BME280;22332;51.954;20.118;2023-05-23T04:37:15;100039.79;;;14.94;61.59
35848;BME280;22332;51.954;20.118;2023-05-23T04:40:25;100037.61;;;15.16;61.83
35848;BME280;22332;51.954;20.118;2023-05-23T04:43:51;100034.71;;;15.44;62.06
35848;BME280;22332;51.954;20.118;2023-05-23T04:47:15;100034.57;;;15.78;62.04
35848;BME280;22332;51.954;20.118;2023-05-23T04:50:42;100031.02;;;16.10;61.78
35848;BME280;22332;51.954;20.118;2023-05-23T04:53:51;100027.36;;;16.36;61.86
35848;BME280;22332;51.954;20.118;2023-05-23T04:56:57;100022.67;;;16.61;62.20
35848;BME280;22332;51.954;20.118;2023-05-23T05:00:08;100018.84;;;16.85;61.77
35848;BME280;22332;51.954;20.118;2023-05-23T05:03:14;100017.59;;;17.06;61.37
35848;BME280;22332;51.954;20.118;2023-05-23T05:06:22;100016.99;;;17.25;61.21
35848;BME280;22332;51.954;20.118;2023-05-23T05:09:29;100013.20;;;17.43;61.40
35848;BME280;22332;51.954;20.118;2023-05-23T05:12:35;100007.69;;;17.57;61.07
35848;BME280;22332;51.954;20.118;2023-05-23T05:15:41;100004.10;;;17.75;61.02
35848;BME280;22332;51.954;20.118;2023-05-23T05:18:48;100004.88;;;17.91;60.70
35848;BME280;22332;51.954;20.118;2023-05-23T05:21:56;100007.33;;;18.03;60.50
35848;BME280;22332;51.954;20.118;2023-05-23T05:25:04;100004.88;;;18.17;60.25
35848;BME280;22332;51.954;20.118;2023-05-23T05:28:10;100005.66;;;18.30;60.22
35848;BME280;22332;51.954;20.118;2023-05-23T05:31:21;100004.42;;;18.43;59.81
35848;BME280;22332;51.954;20.118;2023-05-23T05:34:26;100005.42;;;18.53;59.73
35848;BME280;22332;51.954;20.118;2023-05-23T05:37:33;100000.27;;;18.63;59.30
35848;BME280;22332;51.954;20.118;2023-05-23T05:40:39;100001.04;;;18.69;59.12
35848;BME280;22332;51.954;20.118;2023-05-23T05:43:44;99998.31;;;18.76;58.91
35848;BME280;22332;51.954;20.118;2023-05-23T05:46:52;99995.86;;;18.83;58.49
35848;BME280;22332;51.954;20.118;2023-05-23T05:49:57;99995.55;;;18.89;58.24
35848;BME280;22332;51.954;20.118;2023-05-23T05:53:03;99992.88;;;18.94;57.60
35848;BME280;22332;51.954;20.118;2023-05-23T05:56:08;99986.11;;;18.98;57.41
35848;BME280;22332;51.954;20.118;2023-05-23T05:59:16;99987.77;;;19.00;57.10
35848;BME280;22332;51.954;20.118;2023-05-23T06:02:22;99985.77;;;19.03;57.07
35848;BME280;22332;51.954;20.118;2023-05-23T06:05:27;99982.00;;;19.07;56.37
35848;BME280;22332;51.954;20.118;2023-05-23T06:08:33;99980.99;;;19.10;56.42
35848;BME280;22332;51.954;20.118;2023-05-23T06:11:38;99976.94;;;19.13;56.32
35848;BME280;22332;51.954;20.118;2023-05-23T06:14:44;99976.67;;;19.15;55.83
35848;BME280;22332;51.954;20.118;2023-05-23T06:17:51;99974.75;;;19.15;55.62
35848;BME280;22332;51.954;20.118;2023-05-23T06:20:57;99969.05;;;19.18;55.68
35848;BME280;22332;51.954;20.118;2023-05-23T06:24:04;99970.56;;;19.21;55.39
35848;BME280;22332;51.954;20.118;2023-05-23T06:27:09;99963.30;;;19.27;55.35
35848;BME280;22332;51.954;20.118;2023-05-23T06:30:16;99959.30;;;19.32;55.31
35848;BME280;22332;51.954;20.118;2023-05-23T06:33:22;99958.55;;;19.37;55.03
35848;BME280;22332;51.954;20.118;2023-05-23T06:36:28;99960.52;;;19.40;54.44
35848;BME280;22332;51.954;20.118;2023-05-23T06:39:35;99956.92;;;19.42;54.83
35848;BME280;22332;51.954;20.118;2023-05-23T06:42:40;99953.83;;;19.49;54.42
35848;BME280;22332;51.954;20.118;2023-05-23T06:45:52;99950.09;;;19.52;53.84
35848;BME280;22332;51.954;20.118;2023-05-23T06:48:57;99947.45;;;19.54;53.22
35848;BME280;22332;51.954;20.118;2023-05-23T06:52:04;99949.38;;;19.60;53.63
35848;BME280;22332;51.954;20.118;2023-05-23T06:55:10;99949.99;;;19.66;53.15
35848;BME280;22332;51.954;20.118;2023-05-23T06:58:18;99944.96;;;19.73;53.43
35848;BME280;22332;51.954;20.118;2023-05-23T07:01:25;99949.06;;;19.82;53.35
35848;BME280;22332;51.954;20.118;2023-05-23T07:04:31;99945.88;;;19.89;53.14
35848;BME280;22332;51.954;20.118;2023-05-23T07:07:41;99946.77;;;19.94;52.65
35848;BME280;22332;51.954;20.118;2023-05-23T07:10:46;99944.46;;;19.98;52.34
35848;BME280;22332;51.954;20.118;2023-05-23T07:14:00;99939.81;;;20.06;52.60
35848;BME280;22332;51.954;20.118;2023-05-23T07:17:23;99938.17;;;20.15;51.93
35848;BME280;22332;51.954;20.118;2023-05-23T07:20:30;99935.29;;;20.20;51.71
35848;BME280;22332;51.954;20.118;2023-05-23T07:23:40;99933.66;;;20.27;51.44
35848;BME280;22332;51.954;20.118;2023-05-23T07:26:46;99931.21;;;20.36;51.35
35848;BME280;22332;51.954;20.118;2023-05-23T07:29:52;99925.45;;;20.43;50.78
35848;BME280;22332;51.954;20.118;2023-05-23T07:32:58;99924.72;;;20.46;49.99
35848;BME280;22332;51.954;20.118;2023-05-23T07:36:04;99923.98;;;20.48;49.94
35848;BME280;22332;51.954;20.118;2023-05-23T07:39:10;99917.84;;;20.53;49.80
35848;BME280;22332;51.954;20.118;2023-05-23T07:42:16;99917.77;;;20.60;49.76
35848;BME280;22332;51.954;20.118;2023-05-23T07:45:22;99916.28;;;20.68;49.88
35848;BME280;22332;51.954;20.118;2023-05-23T07:48:27;99916.71;;;20.75;49.62
35848;BME280;22332;51.954;20.118;2023-05-23T07:51:35;99915.34;;;20.85;49.34
35848;BME280;22332;51.954;20.118;2023-05-23T07:54:41;99916.46;;;20.92;48.45
35848;BME280;22332;51.954;20.118;2023-05-23T07:57:48;99910.64;;;20.97;48.20
35848;BME280;22332;51.954;20.118;2023-05-23T08:00:54;99908.83;;;21.00;47.99
35848;BME280;22332;51.954;20.118;2023-05-23T08:04:21;99905.39;;;21.04;47.33
35848;BME280;22332;51.954;20.118;2023-05-23T08:07:31;99901.34;;;21.11;47.81
35848;BME280;22332;51.954;20.118;2023-05-23T08:10:38;99898.29;;;21.16;46.64
35848;BME280;22332;51.954;20.118;2023-05-23T08:13:47;99902.98;;;21.20;46.57
35848;BME280;22332;51.954;20.118;2023-05-23T08:17:21;99897.98;;;21.26;46.64
35848;BME280;22332;51.954;20.118;2023-05-23T08:20:27;99900.45;;;21.33;45.43
35848;BME280;22332;51.954;20.118;2023-05-23T08:23:36;99895.36;;;21.38;45.68
35848;BME280;22332;51.954;20.118;2023-05-23T08:26:42;99893.67;;;21.42;45.57
35848;BME280;22332;51.954;20.118;2023-05-23T08:29:49;99888.85;;;21.46;44.81
35848;BME280;22332;51.954;20.118;2023-05-23T08:32:57;99886.81;;;21.53;45.03
35848;BME280;22332;51.954;20.118;2023-05-23T08:36:04;99888.89;;;21.61;44.70
35848;BME280;22332;51.954;20.118;2023-05-23T08:39:10;99885.05;;;21.64;44.04
35848;BME280;22332;51.954;20.118;2023-05-23T08:42:21;99886.33;;;21.67;44.55
35848;BME280;22332;51.954;20.118;2023-05-23T08:45:26;99885.16;;;21.73;43.74
35848;BME280;22332;51.954;20.118;2023-05-23T08:48:35;99879.95;;;21.78;43.58
35848;BME280;22332;51.954;20.118;2023-05-23T08:51:43;99878.33;;;21.87;43.39
35848;BME280;22332;51.954;20.118;2023-05-23T08:54:54;99873.26;;;21.94;43.31
35848;BME280;22332;51.954;20.118;2023-05-23T08:58:01;99873.44;;;22.00;43.36
35848;BME280;22332;51.954;20.118;2023-05-23T09:01:35;99872.97;;;22.03;42.60
35848;BME280;22332;51.954;20.118;2023-05-23T09:04:45;99874.67;;;22.07;42.01
35848;BME280;22332;51.954;20.118;2023-05-23T09:07:59;99876.96;;;22.15;41.86
35848;BME280;22332;51.954;20.118;2023-05-23T09:11:05;99874.24;;;22.22;41.13
35848;BME280;22332;51.954;20.118;2023-05-23T09:14:14;99871.64;;;22.29;41.71
35848;BME280;22332;51.954;20.118;2023-05-23T09:17:21;99869.08;;;22.36;41.17
35848;BME280;22332;51.954;20.118;2023-05-23T09:20:28;99873.52;;;22.43;41.36
35848;BME280;22332;51.954;20.118;2023-05-23T09:23:39;99873.56;;;22.53;41.30
35848;BME280;22332;51.954;20.118;2023-05-23T09:26:48;99874.13;;;22.66;40.83
35848;BME280;22332;51.954;20.118;2023-05-23T09:29:53;99865.01;;;22.75;40.69
35848;BME280;22332;51.954;20.118;2023-05-23T09:33:03;99867.66;;;22.84;40.37
35848;BME280;22332;51.954;20.118;2023-05-23T09:36:10;99867.54;;;22.88;40.19
35848;BME280;22332;51.954;20.118;2023-05-23T09:39:15;99865.73;;;22.94;40.06
35848;BME280;22332;51.954;20.118;2023-05-23T09:42:22;99866.95;;;23.01;40.32
35848;BME280;22332;51.954;20.118;2023-05-23T09:45:30;99865.81;;;23.01;39.40
35848;BME280;22332;51.954;20.118;2023-05-23T09:48:38;99870.38;;;23.08;39.68
35848;BME280;22332;51.954;20.118;2023-05-23T09:51:43;99864.80;;;23.17;39.92
35848;BME280;22332;51.954;20.118;2023-05-23T09:55:01;99863.08;;;23.27;39.91
35848;BME280;22332;51.954;20.118;2023-05-23T09:58:07;99862.67;;;23.29;39.39
35848;BME280;22332;51.954;20.118;2023-05-23T10:01:14;99859.18;;;23.35;38.99
35848;BME280;22332;51.954;20.118;2023-05-23T10:04:21;99855.55;;;23.46;39.29
35848;BME280;22332;51.954;20.118;2023-05-23T10:07:28;99852.42;;;23.59;39.63
35848;BME280;22332;51.954;20.118;2023-05-23T10:10:34;99856.44;;;23.69;38.80
35848;BME280;22332;51.954;20.118;2023-05-23T10:13:53;99851.83;;;23.76;38.80
35848;BME280;22332;51.954;20.118;2023-05-23T10:17:05;99852.86;;;23.82;37.78
35848;BME280;22332;51.954;20.118;2023-05-23T10:20:15;99852.34;;;23.84;38.18
35848;BME280;22332;51.954;20.118;2023-05-23T10:23:22;99847.02;;;23.85;37.77
35848;BME280;22332;51.954;20.118;2023-05-23T10:26:28;99848.73;;;23.91;37.79
35848;BME280;22332;51.954;20.118;2023-05-23T10:29:35;99844.55;;;23.97;37.47
35848;BME280;22332;51.954;20.118;2023-05-23T10:32:41;99846.72;;;24.03;37.64
35848;BME280;22332;51.954;20.118;2023-05-23T10:35:55;99845.80;;;24.07;37.38
35848;BME280;22332;51.954;20.118;2023-05-23T10:39:07;99841.21;;;24.12;36.99
35848;BME280;22332;51.954;20.118;2023-05-23T10:42:21;99840.48;;;24.13;36.97
35848;BME280;22332;51.954;20.118;2023-05-23T10:45:28;99839.02;;;24.15;37.19
35848;BME280;22332;51.954;20.118;2023-05-23T10:48:35;99839.48;;;24.13;37.38
35848;BME280;22332;51.954;20.118;2023-05-23T10:51:48;99839.69;;;24.08;36.45
35848;BME280;22332;51.954;20.118;2023-05-23T10:54:55;99834.27;;;24.06;36.94
35848;BME280;22332;51.954;20.118;2023-05-23T10:58:17;99832.29;;;24.08;36.96
35848;BME280;22332;51.954;20.118;2023-05-23T11:01:24;99833.56;;;24.10;36.65
35848;BME280;22332;51.954;20.118;2023-05-23T11:04:31;99832.95;;;24.05;36.86
35848;BME280;22332;51.954;20.118;2023-05-23T11:07:37;99827.77;;;23.97;36.94
35848;BME280;22332;51.954;20.118;2023-05-23T11:10:55;99826.39;;;23.87;36.66
35848;BME280;22332;51.954;20.118;2023-05-23T11:14:03;99824.09;;;23.79;36.78
35848;BME280;22332;51.954;20.118;2023-05-23T11:17:17;99824.52;;;23.82;36.51
35848;BME280;22332;51.954;20.118;2023-05-23T11:20:24;99819.88;;;23.94;36.22
35848;BME280;22332;51.954;20.118;2023-05-23T11:23:41;99818.45;;;24.06;36.33
35848;BME280;22332;51.954;20.118;2023-05-23T11:26:53;99820.80;;;24.18;36.25
35848;BME280;22332;51.954;20.118;2023-05-23T11:30:05;99815.62;;;24.27;36.23
35848;BME280;22332;51.954;20.118;2023-05-23T11:33:13;99808.46;;;24.25;35.97
35848;BME280;22332;51.954;20.118;2023-05-23T11:36:21;99808.58;;;24.22;35.74
35848;BME280;22332;51.954;20.118;2023-05-23T11:39:26;99807.03;;;24.11;35.07
35848;BME280;22332;51.954;20.118;2023-05-23T11:42:32;99803.25;;;24.01;35.08
35848;BME280;22332;51.954;20.118;2023-05-23T11:45:38;99803.92;;;23.98;35.46
35848;BME280;22332;51.954;20.118;2023-05-23T11:48:46;99797.59;;;24.06;35.78
35848;BME280;22332;51.954;20.118;2023-05-23T11:51:52;99791.95;;;24.18;35.22
35848;BME280;22332;51.954;20.118;2023-05-23T11:54:57;99788.08;;;24.31;35.33
35848;BME280;22332;51.954;20.118;2023-05-23T11:58:05;99785.14;;;24.51;35.56
35848;BME280;22332;51.954;20.118;2023-05-23T12:01:12;99784.13;;;24.68;34.66
35848;BME280;22332;51.954;20.118;2023-05-23T12:04:17;99781.63;;;24.81;34.86
35848;BME280;22332;51.954;20.118;2023-05-23T12:07:23;99783.59;;;24.92;34.59
35848;BME280;22332;51.954;20.118;2023-05-23T12:10:29;99780.88;;;25.02;34.25
35848;BME280;22332;51.954;20.118;2023-05-23T12:13:35;99776.95;;;25.14;34.32
35848;BME280;22332;51.954;20.118;2023-05-23T12:16:43;99779.81;;;25.29;34.03
35848;BME280;22332;51.954;20.118;2023-05-23T12:19:51;99777.62;;;25.43;34.21
35848;BME280;22332;51.954;20.118;2023-05-23T12:22:58;99776.65;;;25.56;33.73
35848;BME280;22332;51.954;20.118;2023-05-23T12:26:05;99774.30;;;25.64;33.92
35848;BME280;22332;51.954;20.118;2023-05-23T12:29:13;99768.86;;;25.70;33.92
35848;BME280;22332;51.954;20.118;2023-05-23T12:32:19;99769.45;;;25.68;33.56
35848;BME280;22332;51.954;20.118;2023-05-23T12:35:29;99769.95;;;25.60;33.60
35848;BME280;22332;51.954;20.118;2023-05-23T12:38:35;99773.36;;;25.44;33.72
35848;BME280;22332;51.954;20.118;2023-05-23T12:41:43;99768.17;;;25.33;33.34
35848;BME280;22332;51.954;20.118;2023-05-23T12:44:52;99770.38;;;25.31;33.54
35848;BME280;22332;51.954;20.118;2023-05-23T12:47:57;99769.13;;;25.31;33.06
35848;BME280;22332;51.954;20.118;2023-05-23T12:51:04;99770.64;;;25.30;33.46
35848;BME280;22332;51.954;20.118;2023-05-23T12:54:10;99767.78;;;25.33;33.15
35848;BME280;22332;51.954;20.118;2023-05-23T12:57:15;99758.20;;;25.32;33.18
35848;BME280;22332;51.954;20.118;2023-05-23T13:00:22;99759.61;;;25.30;33.01
35848;BME280;22332;51.954;20.118;2023-05-23T13:03:38;99758.11;;;25.22;33.08
35848;BME280;22332;51.954;20.118;2023-05-23T13:07:05;99755.71;;;25.15;33.38
35848;BME280;22332;51.954;20.118;2023-05-23T13:10:20;99746.02;;;25.04;32.77
35848;BME280;22332;51.954;20.118;2023-05-23T13:13:32;99739.61;;;25.00;33.19
35848;BME280;22332;51.954;20.118;2023-05-23T13:16:46;99741.82;;;24.98;32.81
35848;BME280;22332;51.954;20.118;2023-05-23T13:19:51;99738.98;;;24.94;33.27
35848;BME280;22332;51.954;20.118;2023-05-23T13:22:59;99740.09;;;24.92;33.20
35848;BME280;22332;51.954;20.118;2023-05-23T13:26:07;99738.38;;;24.92;33.09
35848;BME280;22332;51.954;20.118;2023-05-23T13:29:12;99740.42;;;24.88;32.80
35848;BME280;22332;51.954;20.118;2023-05-23T13:32:18;99733.90;;;24.83;32.71
35848;BME280;22332;51.954;20.118;2023-05-23T13:35:24;99735.61;;;24.80;33.00
35848;BME280;22332;51.954;20.118;2023-05-23T13:38:30;99737.76;;;24.80;33.37
35848;BME280;22332;51.954;20.118;2023-05-23T13:41:35;99735.27;;;24.78;32.94
35848;BME280;22332;51.954;20.118;2023-05-23T13:44:41;99734.58;;;24.73;33.07
35848;BME280;22332;51.954;20.118;2023-05-23T13:47:46;99733.03;;;24.72;32.95
35848;BME280;22332;51.954;20.118;2023-05-23T13:50:52;99732.64;;;24.69;33.16
35848;BME280;22332;51.954;20.118;2023-05-23T13:53:57;99723.62;;;24.69;33.27
35848;BME280;22332;51.954;20.118;2023-05-23T13:57:04;99726.73;;;24.69;33.26
35848;BME280;22332;51.954;20.118;2023-05-23T14:00:11;99716.60;;;24.64;33.26
35848;BME280;22332;51.954;20.118;2023-05-23T14:03:17;99716.17;;;24.58;32.71
35848;BME280;22332;51.954;20.118;2023-05-23T14:06:23;99717.02;;;24.52;33.01
35848;BME280;22332;51.954;20.118;2023-05-23T14:09:28;99715.12;;;24.48;32.86
35848;BME280;22332;51.954;20.118;2023-05-23T14:12:34;99715.13;;;24.44;33.05
35848;BME280;22332;51.954;20.118;2023-05-23T14:15:41;99713.94;;;24.40;33.17
35848;BME280;22332;51.954;20.118;2023-05-23T14:18:46;99715.80;;;24.36;33.27
35848;BME280;22332;51.954;20.118;2023-05-23T14:21:52;99711.40;;;24.26;33.02
35848;BME280;22332;51.954;20.118;2023-05-23T14:24:58;99706.23;;;24.11;33.22
35848;BME280;22332;51.954;20.118;2023-05-23T14:28:03;99706.59;;;24.00;33.36
35848;BME280;22332;51.954;20.118;2023-05-23T14:31:09;99711.11;;;23.90;33.59
35848;BME280;22332;51.954;20.118;2023-05-23T14:34:14;99708.47;;;23.83;33.56
35848;BME280;22332;51.954;20.118;2023-05-23T14:37:21;99711.66;;;23.81;33.46
35848;BME280;22332;51.954;20.118;2023-05-23T14:40:26;99712.16;;;23.81;33.30
35848;BME280;22332;51.954;20.118;2023-05-23T14:43:32;99711.21;;;23.85;33.41
35848;BME280;22332;51.954;20.118;2023-05-23T14:46:37;99707.29;;;23.93;33.62
35848;BME280;22332;51.954;20.118;2023-05-23T14:49:45;99705.11;;;23.99;33.29
35848;BME280;22332;51.954;20.118;2023-05-23T14:52:50;99702.61;;;24.04;33.32
35848;BME280;22332;51.954;20.118;2023-05-23T14:55:56;99698.16;;;24.07;33.04
35848;BME280;22332;51.954;20.118;2023-05-23T14:59:02;99697.44;;;24.09;33.27
35848;BME280;22332;51.954;20.118;2023-05-23T15:02:07;99695.96;;;24.16;33.35
35848;BME280;22332;51.954;20.118;2023-05-23T15:05:14;99698.29;;;24.23;33.25
35848;BME280;22332;51.954;20.118;2023-05-23T15:08:20;99697.31;;;24.24;32.96
35848;BME280;22332;51.954;20.118;2023-05-23T15:11:26;99700.81;;;24.25;32.89
35848;BME280;22332;51.954;20.118;2023-05-23T15:14:31;99698.73;;;24.24;33.11
35848;BME280;22332;51.954;20.118;2023-05-23T15:17:37;99695.25;;;24.24;33.10
35848;BME280;22332;51.954;20.118;2023-05-23T15:20:55;99698.07;;;24.23;32.97
35848;BME280;22332;51.954;20.118;2023-05-23T15:24:01;99697.58;;;24.13;32.73
35848;BME280;22332;51.954;20.118;2023-05-23T15:27:07;99698.46;;;23.99;32.83
35848;BME280;22332;51.954;20.118;2023-05-23T15:30:13;99700.50;;;23.83;32.73
35848;BME280;22332;51.954;20.118;2023-05-23T15:33:19;99699.43;;;23.68;32.76
35848;BME280;22332;51.954;20.118;2023-05-23T15:36:25;99705.95;;;23.59;32.95
35848;BME280;22332;51.954;20.118;2023-05-23T15:39:30;99706.13;;;23.47;33.02
35848;BME280;22332;51.954;20.118;2023-05-23T15:42:36;99705.90;;;23.39;32.89
35848;BME280;22332;51.954;20.118;2023-05-23T15:45:42;99706.63;;;23.32;33.17
35848;BME280;22332;51.954;20.118;2023-05-23T15:48:47;99701.69;;;23.26;33.16
35848;BME280;22332;51.954;20.118;2023-05-23T15:51:53;99695.90;;;23.21;33.04
35848;BME280;22332;51.954;20.118;2023-05-23T15:54:59;99690.83;;;23.16;33.08
35848;BME280;22332;51.954;20.118;2023-05-23T15:58:08;99686.25;;;23.11;33.12
35848;BME280;22332;51.954;20.118;2023-05-23T16:01:14;99679.98;;;23.07;33.16
35848;BME280;22332;51.954;20.118;2023-05-23T16:04:20;99675.16;;;23.05;33.21
35848;BME280;22332;51.954;20.118;2023-05-23T16:07:26;99670.25;;;23.04;33.29
35848;BME280;22332;51.954;20.118;2023-05-23T16:10:32;99664.02;;;23.03;33.49
35848;BME280;22332;51.954;20.118;2023-05-23T16:13:38;99665.95;;;23.02;33.45
35848;BME280;22332;51.954;20.118;2023-05-23T16:16:43;99665.10;;;23.01;33.54
35848;BME280;22332;51.954;20.118;2023-05-23T16:19:49;99668.05;;;23.01;33.52